Time;durP1;ratioP1;P1;durP2;ratioP2;P2;SDS_P1;SDS_P2;PMS_P1;PMS_P2;Temp;Humidity;BMP_temperature;BMP_pressure;BME280_temperature;BME280_humidity;BME280_pressure;Samples;Min_cycle;Max_cycle;Signal;HPM_P1;HPM_P2
2022/04/17 00:01:09;;;;;;;;;5.25;5.25;;;;;10.10;44.45;-18754.72;5073083;28;10455;-70
2022/04/17 00:03:35;;;;;;;;;5.50;4.50;;;;;10.02;44.59;-18752.31;5072082;28;10349;-71
2022/04/17 00:06:02;;;;;;;;;9.25;9.25;;;;;10.01;44.64;-18752.16;5068282;28;10359;-70
2022/04/17 00:08:28;;;;;;;;;6.75;6.75;;;;;9.92;44.67;-18749.44;5070197;28;10376;-70
2022/04/17 00:10:55;;;;;;;;;4.00;4.00;;;;;10.00;44.60;-18751.72;5052503;28;10469;-68
2022/04/17 00:13:21;;;;;;;;;7.00;6.00;;;;;9.83;44.51;-18746.72;5066002;28;10495;-70
2022/04/17 00:15:49;;;;;;;;;9.50;6.50;;;;;9.81;44.42;-18746.13;5071001;28;10275;-70
2022/04/17 00:18:16;;;;;;;;;7.00;6.50;;;;;9.86;44.86;-18747.63;5071916;28;11122;-70
2022/04/17 00:20:43;;;;;;;;;7.50;5.75;;;;;9.83;44.78;-18746.72;5058753;28;10343;-68
2022/04/17 00:23:09;;;;;;;;;6.25;6.25;;;;;9.87;44.86;-18747.94;5071871;28;10312;-69
2022/04/17 00:25:36;;;;;;;;;10.00;7.00;;;;;9.86;44.96;-18747.78;5070510;28;10359;-70
2022/04/17 00:28:04;;;;;;;;;7.00;6.00;;;;;9.86;45.70;-18747.63;5071683;28;10368;-70
2022/04/17 00:30:31;;;;;;;;;6.00;6.00;;;;;9.80;44.71;-18745.81;5071417;28;10198;-70
2022/04/17 00:32:57;;;;;;;;;7.75;7.00;;;;;9.67;45.19;-18741.91;5071687;28;10499;-71
2022/04/17 00:35:23;;;;;;;;;7.00;7.00;;;;;9.70;45.51;-18742.97;5069323;28;11123;-71
2022/04/17 00:37:50;;;;;;;;;9.00;7.75;;;;;9.57;45.50;-18739.19;5071213;28;10616;-72
2022/04/17 00:40:16;;;;;;;;;6.50;5.00;;;;;9.63;45.25;-18740.69;5070534;28;10488;-69
2022/04/17 00:42:44;;;;;;;;;8.75;7.25;;;;;9.63;45.31;-18740.69;5063642;28;10300;-70
2022/04/17 00:45:10;;;;;;;;;6.00;6.00;;;;;9.54;45.64;-18738.13;5071054;28;10509;-70
2022/04/17 00:47:36;;;;;;;;;7.25;7.25;;;;;9.56;45.57;-18738.72;5069868;28;10323;-70
2022/04/17 00:50:07;;;;;;;;;7.75;7.75;;;;;9.41;45.28;-18734.34;5063551;28;10395;-71
2022/04/17 00:52:34;;;;;;;;;13.00;7.00;;;;;9.45;45.69;-18735.56;5062102;28;10435;-71
2022/04/17 00:55:04;;;;;;;;;10.00;8.00;;;;;9.42;45.62;-18734.66;5068662;28;10531;-70
2022/04/17 00:57:31;;;;;;;;;9.25;9.25;;;;;9.13;46.18;-18726.03;5070947;28;10564;-70
2022/04/17 00:59:58;;;;;;;;;9.50;8.25;;;;;9.25;46.27;-18729.53;5070997;28;11565;-69
2022/04/17 01:02:25;;;;;;;;;11.00;8.75;;;;;9.14;46.45;-18726.34;5083785;28;10521;-69
2022/04/17 01:04:52;;;;;;;;;8.75;7.00;;;;;9.22;46.48;-18728.63;5070674;28;10425;-70
2022/04/17 01:07:22;;;;;;;;;7.50;7.50;;;;;9.17;46.42;-18727.25;5070866;28;10425;-69
2022/04/17 01:09:50;;;;;;;;;9.25;8.00;;;;;9.15;46.64;-18726.66;5068750;28;10668;-70
2022/04/17 01:12:17;;;;;;;;;10.00;9.75;;;;;9.17;46.63;-18727.25;5071076;28;10708;-70
2022/04/17 01:14:44;;;;;;;;;9.25;9.25;;;;;9.14;47.08;-18726.19;5070628;28;10595;-71
2022/04/17 01:17:12;;;;;;;;;9.75;8.50;;;;;9.08;47.33;-18724.38;5070532;28;10797;-70
2022/04/17 01:19:39;;;;;;;;;9.75;9.25;;;;;9.05;47.42;-18723.47;5070911;28;10521;-70
2022/04/17 01:22:08;;;;;;;;;6.00;6.00;;;;;9.11;47.14;-18725.28;5069482;28;10724;-70
2022/04/17 01:27:20;;;;;;;;;8.75;7.25;;;;;9.06;47.20;-18723.78;5070040;28;10535;-70
2022/04/17 01:29:47;;;;;;;;;4.50;4.50;;;;;8.94;47.70;-18720.47;5070706;28;10602;-70
2022/04/17 01:32:14;;;;;;;;;9.75;6.50;;;;;8.98;48.06;-18721.53;5069590;28;11165;-70
2022/04/17 01:34:41;;;;;;;;;8.00;8.00;;;;;9.00;47.86;-18721.97;5067420;28;10661;-70
2022/04/17 01:37:08;;;;;;;;;9.50;7.00;;;;;8.84;48.19;-18717.28;5069344;28;11244;-70
2022/04/17 01:39:34;;;;;;;;;5.50;5.50;;;;;8.93;48.13;-18720.00;5069500;28;10694;-69
2022/04/17 01:42:01;;;;;;;;;6.00;5.50;;;;;8.88;48.22;-18718.50;5070495;28;11486;-70
2022/04/17 01:44:28;;;;;;;;;6.00;6.00;;;;;8.87;48.10;-18718.34;5069923;28;11245;-68
2022/04/17 01:46:57;;;;;;;;;8.00;8.00;;;;;8.85;48.15;-18717.75;5070040;28;10712;-70
2022/04/17 01:49:24;;;;;;;;;7.00;7.00;;;;;8.79;48.14;-18715.78;5069018;28;10572;-68
2022/04/17 01:51:52;;;;;;;;;13.00;11.75;;;;;8.71;48.37;-18713.53;5063094;28;10711;-70
2022/04/17 01:54:20;;;;;;;;;7.50;7.50;;;;;8.79;48.32;-18715.94;5062629;28;10858;-70
2022/04/17 01:56:47;;;;;;;;;8.75;8.75;;;;;8.72;48.61;-18713.66;5068977;28;10919;-69
2022/04/17 01:59:15;;;;;;;;;8.00;8.00;;;;;8.79;48.69;-18715.78;5070144;28;10698;-69
2022/04/17 02:01:42;;;;;;;;;8.00;8.00;;;;;8.74;48.66;-18714.41;5075137;28;10806;-72
2022/04/17 02:04:10;;;;;;;;;8.25;7.50;;;;;8.72;48.91;-18713.66;5067843;28;10773;-70
2022/04/17 02:06:41;;;;;;;;;8.50;8.25;;;;;8.72;48.61;-18713.66;5069158;28;12553;-71
2022/04/17 02:09:11;;;;;;;;;11.50;9.00;;;;;8.64;48.66;-18711.56;5068820;28;10746;-70
2022/04/17 02:11:38;;;;;;;;;9.50;8.00;;;;;8.68;48.47;-18712.47;5070457;28;10728;-70
2022/04/17 02:14:09;;;;;;;;;12.75;12.50;;;;;8.67;48.60;-18712.31;5070271;28;10713;-70
2022/04/17 02:16:36;;;;;;;;;11.50;11.50;;;;;8.66;49.02;-18711.84;5069793;28;11053;-70
2022/04/17 02:19:03;;;;;;;;;6.75;5.00;;;;;8.70;48.91;-18713.06;5065506;28;10666;-72
2022/04/17 02:21:30;;;;;;;;;7.00;7.00;;;;;8.74;49.13;-18714.28;5068563;28;10691;-69
2022/04/17 02:24:00;;;;;;;;;9.25;8.00;;;;;8.67;49.28;-18712.31;5069031;28;10691;-69
2022/04/17 02:26:27;;;;;;;;;14.75;11.50;;;;;8.68;48.86;-18712.63;5064813;28;10810;-70
2022/04/17 02:28:56;;;;;;;;;9.00;8.00;;;;;8.62;49.13;-18710.94;5069809;28;10840;-70
2022/04/17 02:31:23;;;;;;;;;7.00;7.00;;;;;8.59;49.42;-18709.88;5070269;28;10611;-69
2022/04/17 02:33:51;;;;;;;;;11.25;9.50;;;;;8.46;49.28;-18706.13;5080560;28;11295;-69
2022/04/17 02:36:18;;;;;;;;;12.00;11.00;;;;;8.50;49.37;-18707.19;5069085;28;10866;-69
2022/04/17 02:38:45;;;;;;;;;12.00;10.25;;;;;8.49;49.31;-18707.03;5071986;28;10959;-67
2022/04/17 02:41:11;;;;;;;;;10.00;10.00;;;;;8.48;50.04;-18706.56;5073860;28;10829;-67
2022/04/17 02:43:38;;;;;;;;;16.00;11.00;;;;;8.43;49.88;-18705.22;5073835;28;10838;-67
2022/04/17 02:46:04;;;;;;;;;8.50;8.00;;;;;8.44;50.10;-18705.50;5093003;28;10818;-68
2022/04/17 02:48:32;;;;;;;;;9.50;8.00;;;;;8.46;49.87;-18706.13;5083311;28;10596;-68
2022/04/17 02:50:59;;;;;;;;;11.50;10.00;;;;;8.43;49.65;-18705.22;5073933;28;10779;-67
2022/04/17 02:53:25;;;;;;;;;15.00;9.50;;;;;8.39;50.37;-18703.84;5073748;28;11701;-68
2022/04/17 02:55:52;;;;;;;;;13.25;13.25;;;;;8.39;49.82;-18704.00;5073717;28;10657;-69
2022/04/17 02:58:18;;;;;;;;;7.25;7.00;;;;;8.38;50.04;-18703.69;5070229;28;11572;-67
2022/04/17 03:06:15;;;;;;;;;11.50;11.50;;;;;8.33;50.19;-18702.34;5073371;28;10772;-68
2022/04/17 03:08:42;;;;;;;;;11.00;10.50;;;;;8.30;50.34;-18701.28;5068144;28;11565;-67
2022/04/17 03:11:09;;;;;;;;;14.25;12.50;;;;;8.33;50.62;-18702.34;5053330;28;11651;-68
2022/04/17 03:13:36;;;;;;;;;10.00;10.00;;;;;8.40;49.98;-18704.31;5053328;28;10880;-69
2022/04/17 03:16:03;;;;;;;;;12.75;9.25;;;;;8.32;49.59;-18701.88;5052575;28;10848;-69
2022/04/17 03:18:30;;;;;;;;;13.25;12.50;;;;;8.30;50.04;-18701.44;5071469;28;10670;-67
2022/04/17 03:20:58;;;;;;;;;12.50;12.50;;;;;8.23;50.47;-18699.31;5078619;28;10831;-69
2022/04/17 03:23:25;;;;;;;;;13.75;11.00;;;;;8.23;49.69;-18699.16;5093370;28;10758;-67
2022/04/17 03:25:52;;;;;;;;;10.00;10.00;;;;;8.23;50.33;-18699.16;5093477;28;10947;-68
2022/04/17 03:28:19;;;;;;;;;11.00;9.00;;;;;8.21;50.16;-18698.56;5089306;28;10737;-67
2022/04/17 03:30:46;;;;;;;;;17.00;13.25;;;;;8.15;50.42;-18696.75;5072200;28;10777;-68
2022/04/17 03:33:12;;;;;;;;;8.75;8.25;;;;;8.17;49.99;-18697.34;5065577;28;11878;-67
2022/04/17 03:35:39;;;;;;;;;11.75;8.00;;;;;8.19;49.66;-18697.97;5072433;28;10844;-68
2022/04/17 03:38:05;;;;;;;;;13.50;12.00;;;;;8.13;50.06;-18696.13;5071343;28;10839;-68
2022/04/17 03:40:32;;;;;;;;;13.25;13.25;;;;;8.12;50.00;-18696.00;5052693;28;11020;-68
2022/04/17 03:42:58;;;;;;;;;12.00;12.00;;;;;8.09;49.81;-18694.94;5052845;28;11059;-67
2022/04/17 03:45:24;;;;;;;;;13.25;12.50;;;;;7.99;49.96;-18692.06;5061369;28;10923;-66
2022/04/17 03:47:51;;;;;;;;;13.00;12.75;;;;;8.03;50.47;-18693.28;5072515;28;10887;-68
2022/04/17 03:50:18;;;;;;;;;9.00;8.50;;;;;8.06;49.94;-18694.19;5071389;28;11091;-67
2022/04/17 03:52:47;;;;;;;;;12.25;11.75;;;;;8.05;50.24;-18693.72;5071591;28;10942;-69
2022/04/17 03:55:14;;;;;;;;;13.50;11.50;;;;;8.02;49.40;-18692.97;5071385;28;10929;-70
2022/04/17 03:57:41;;;;;;;;;14.75;11.75;;;;;7.94;49.51;-18690.56;5072132;28;10987;-69
2022/04/17 04:00:11;;;;;;;;;18.25;18.25;;;;;7.88;50.28;-18688.88;5071586;28;11064;-68
2022/04/17 04:02:39;;;;;;;;;14.50;12.00;;;;;7.86;51.03;-18688.13;5072341;28;11474;-68
2022/04/17 04:05:07;;;;;;;;;13.00;12.75;;;;;7.89;50.63;-18689.03;5055767;28;10919;-69
2022/04/17 04:07:35;;;;;;;;;16.75;15.75;;;;;7.80;50.97;-18686.47;5052165;28;11117;-68
2022/04/17 04:10:03;;;;;;;;;11.50;11.50;;;;;7.88;50.76;-18688.88;5052603;28;10943;-71
2022/04/17 04:12:30;;;;;;;;;11.75;10.00;;;;;7.87;50.63;-18688.59;5067573;28;11166;-69
2022/04/17 04:14:57;;;;;;;;;15.00;13.50;;;;;7.80;50.81;-18686.47;5065097;28;10995;-69
2022/04/17 04:17:23;;;;;;;;;12.25;12.00;;;;;7.79;50.79;-18686.03;5071756;28;11212;-69
2022/04/17 04:19:50;;;;;;;;;15.00;14.00;;;;;7.74;51.05;-18684.66;5072094;28;11073;-69
2022/04/17 04:22:17;;;;;;;;;12.00;12.00;;;;;7.78;50.94;-18685.72;5077277;28;11100;-69
2022/04/17 04:24:43;;;;;;;;;13.25;10.75;;;;;7.72;51.02;-18684.06;5064195;28;11157;-70
2022/04/17 04:29:55;;;;;;;;;19.00;13.25;;;;;7.62;50.95;-18681.03;5064677;28;11251;-69
2022/04/17 04:32:21;;;;;;;;;18.00;14.25;;;;;7.68;51.22;-18683.00;5071795;28;11076;-70
2022/04/17 04:34:48;;;;;;;;;9.50;7.75;;;;;7.57;51.15;-18679.69;5070458;28;11431;-69
2022/04/17 04:37:15;;;;;;;;;17.50;16.00;;;;;7.54;50.90;-18678.63;5071345;28;11107;-70
2022/04/17 04:39:41;;;;;;;;;13.75;12.00;;;;;7.51;51.53;-18677.88;5071636;28;12219;-70
2022/04/17 04:42:08;;;;;;;;;17.75;16.50;;;;;7.56;51.03;-18679.38;5071801;28;11301;-69
2022/04/17 04:44:34;;;;;;;;;15.50;15.00;;;;;7.51;51.56;-18677.88;5062509;28;11473;-69
2022/04/17 04:47:01;;;;;;;;;10.75;9.00;;;;;7.44;51.57;-18675.75;5071221;28;11338;-70
2022/04/17 04:49:30;;;;;;;;;13.00;11.25;;;;;7.36;51.36;-18673.31;5071537;28;11260;-70
2022/04/17 04:51:58;;;;;;;;;12.50;12.50;;;;;7.45;51.56;-18676.06;5071524;28;12010;-69
2022/04/17 04:54:25;;;;;;;;;11.00;11.00;;;;;7.43;51.59;-18675.28;5067181;28;11559;-71
2022/04/17 04:56:51;;;;;;;;;15.00;13.00;;;;;7.41;51.76;-18674.84;5070952;28;11396;-70
2022/04/17 04:59:18;;;;;;;;;18.00;15.00;;;;;7.38;51.38;-18674.09;5065114;28;11394;-70
2022/04/17 05:01:45;;;;;;;;;10.50;9.25;;;;;7.41;51.43;-18674.84;5062267;28;11182;-69
2022/04/17 05:04:17;;;;;;;;;12.50;12.50;;;;;7.41;51.74;-18674.84;5070840;28;11590;-71
2022/04/17 05:06:45;;;;;;;;;13.75;13.00;;;;;7.31;51.80;-18671.97;5070773;28;11624;-70
2022/04/17 05:09:12;;;;;;;;;18.50;16.25;;;;;7.33;51.78;-18672.41;5071148;28;11176;-69
2022/04/17 05:11:39;;;;;;;;;15.25;13.25;;;;;7.35;51.90;-18673.03;5070972;28;11465;-70
2022/04/17 05:14:07;;;;;;;;;20.00;16.75;;;;;7.39;51.54;-18674.38;5062835;28;11278;-69
2022/04/17 05:16:34;;;;;;;;;13.50;12.25;;;;;7.52;51.47;-18678.16;5059189;28;11606;-70
2022/04/17 05:19:24;;;;;;;;;16.75;15.25;;;;;7.62;51.45;-18681.19;5070681;28;11176;-70
2022/04/17 05:21:48;;;;;;;;;10.00;10.00;;;;;7.78;50.93;-18685.72;5066661;28;11627;-70
2022/04/17 05:24:15;;;;;;;;;15.00;12.25;;;;;7.88;50.21;-18688.75;5067501;28;11089;-70
2022/04/17 05:26:42;;;;;;;;;15.00;15.00;;;;;7.72;50.22;-18684.22;5070291;28;11117;-69
2022/04/17 05:29:09;;;;;;;;;15.25;13.50;;;;;7.76;50.48;-18685.25;5069898;28;11269;-70
2022/04/17 05:31:35;;;;;;;;;19.25;15.00;;;;;7.74;50.49;-18684.50;5070477;28;11830;-71
2022/04/17 05:34:02;;;;;;;;;16.00;13.50;;;;;7.75;50.61;-18684.81;5070148;28;11162;-70
2022/04/17 05:36:29;;;;;;;;;21.50;18.00;;;;;7.85;50.09;-18687.97;5070386;28;11096;-69
2022/04/17 05:38:56;;;;;;;;;19.75;12.75;;;;;7.83;50.30;-18687.22;5069220;28;11600;-70
2022/04/17 05:41:24;;;;;;;;;16.75;16.25;;;;;7.87;50.36;-18688.59;5070546;28;11183;-69
2022/04/17 05:43:51;;;;;;;;;14.00;13.50;;;;;8.08;49.96;-18694.63;5067076;28;11847;-69
2022/04/17 05:46:18;;;;;;;;;17.00;14.00;;;;;8.08;49.03;-18694.63;5070747;28;11191;-69
2022/04/17 05:48:45;;;;;;;;;12.50;12.50;;;;;8.05;49.08;-18693.88;5063882;28;11035;-70
2022/04/17 05:51:11;;;;;;;;;15.00;14.25;;;;;7.91;49.56;-18689.66;5070710;28;11226;-70
2022/04/17 05:53:38;;;;;;;;;18.25;16.75;;;;;8.12;48.67;-18695.84;5069713;28;11248;-69
2022/04/17 05:56:05;;;;;;;;;17.50;17.00;;;;;8.12;48.72;-18696.00;5068779;28;11146;-70
2022/04/17 05:58:32;;;;;;;;;22.25;16.75;;;;;8.12;48.87;-18695.84;5059156;28;11196;-69
2022/04/17 06:01:02;;;;;;;;;18.75;18.00;;;;;8.36;49.74;-18703.09;5070460;28;11238;-70
2022/04/17 06:03:29;;;;;;;;;18.25;15.50;;;;;8.67;47.19;-18712.31;5062941;28;11199;-71
2022/04/17 06:05:55;;;;;;;;;17.50;17.00;;;;;9.10;46.32;-18725.13;5070546;28;11478;-70
2022/04/17 06:08:23;;;;;;;;;16.50;13.50;;;;;9.32;45.70;-18731.47;5070022;28;11310;-70
2022/04/17 06:10:50;;;;;;;;;18.25;14.00;;;;;9.45;44.76;-18735.41;5070161;28;11011;-71
2022/04/17 06:13:17;;;;;;;;;13.75;13.00;;;;;9.68;43.89;-18742.19;5069505;28;11006;-70
2022/04/17 06:15:44;;;;;;;;;15.00;14.75;;;;;9.92;43.86;-18749.28;5054562;28;10798;-70
2022/04/17 06:18:11;;;;;;;;;16.00;16.00;;;;;9.95;43.13;-18750.34;5065147;28;10784;-71
2022/04/17 06:20:37;;;;;;;;;15.00;13.00;;;;;10.16;43.60;-18756.69;5070234;28;10991;-70
2022/04/17 06:23:04;;;;;;;;;12.75;10.50;;;;;10.40;42.27;-18763.78;5068666;28;10902;-70
2022/04/17 06:25:30;;;;;;;;;13.00;11.25;;;;;10.53;42.56;-18767.56;5064761;28;10637;-71
2022/04/17 06:27:57;;;;;;;;;13.75;13.75;;;;;10.71;42.10;-18772.84;5069507;28;10728;-71
2022/04/17 06:30:26;;;;;;;;;15.00;11.25;;;;;10.76;42.08;-18774.34;5068120;28;10739;-70
2022/04/17 06:32:53;;;;;;;;;17.75;16.25;;;;;10.76;41.82;-18774.34;5069476;28;10612;-71
2022/04/17 06:35:19;;;;;;;;;17.25;14.25;;;;;10.82;41.63;-18776.00;5070098;28;10747;-71
2022/04/17 06:37:46;;;;;;;;;16.75;16.75;;;;;10.78;41.52;-18775.09;5069614;28;11434;-71
2022/04/17 06:40:17;;;;;;;;;16.75;14.50;;;;;10.88;41.77;-18777.97;5069960;28;10619;-71
2022/04/17 06:42:45;;;;;;;;;16.00;14.25;;;;;11.00;41.24;-18781.44;5069150;28;10662;-71
2022/04/17 06:45:12;;;;;;;;;15.75;11.50;;;;;10.87;41.50;-18777.66;5067730;28;10695;-71
2022/04/17 06:47:38;;;;;;;;;14.25;11.75;;;;;11.18;41.56;-18786.72;5067480;28;11126;-71
2022/04/17 06:50:05;;;;;;;;;10.00;10.00;;;;;11.44;41.29;-18794.41;5070023;28;10409;-70
2022/04/17 06:52:32;;;;;;;;;10.00;9.00;;;;;11.62;40.44;-18799.84;5063474;28;10193;-71
2022/04/17 06:54:59;;;;;;;;;16.25;15.50;;;;;11.66;40.59;-18801.19;5049579;28;11163;-70
2022/04/17 06:57:35;;;;;;;;;13.50;12.00;;;;;11.79;40.18;-18804.97;5061718;28;10535;-70
2022/04/17 07:00:10;;;;;;;;;11.50;10.75;;;;;11.77;40.24;-18804.22;5069078;28;11112;-70
2022/04/17 07:02:42;;;;;;;;;15.50;14.50;;;;;12.00;39.81;-18811.16;5063308;28;10361;-71
2022/04/17 07:05:11;;;;;;;;;13.75;13.75;;;;;11.92;39.44;-18808.88;5049721;28;10543;-71
2022/04/17 07:07:38;;;;;;;;;13.50;13.00;;;;;12.06;39.68;-18812.81;5049681;28;10438;-71
2022/04/17 07:10:05;;;;;;;;;15.75;12.25;;;;;11.99;39.60;-18811.00;5062107;28;10838;-71
2022/04/17 07:12:34;;;;;;;;;15.50;13.00;;;;;12.22;40.41;-18817.63;5065102;28;10355;-71
2022/04/17 07:15:03;;;;;;;;;16.50;14.50;;;;;12.38;39.28;-18822.44;5055009;28;10315;-70
2022/04/17 07:17:37;;;;;;;;;14.25;12.25;;;;;12.27;39.60;-18819.28;5067361;28;10537;-70
2022/04/17 07:20:08;;;;;;;;;17.50;16.00;;;;;12.13;39.59;-18815.06;5052304;28;10416;-70
2022/04/17 07:22:36;;;;;;;;;16.25;13.00;;;;;12.09;39.92;-18813.72;5054921;28;11003;-71
2022/04/17 07:25:04;;;;;;;;;10.00;10.00;;;;;12.13;40.09;-18815.06;5059733;28;10545;-69
2022/04/17 07:27:38;;;;;;;;;13.25;11.00;;;;;12.23;40.00;-18818.09;5062671;28;10371;-71
2022/04/17 07:30:14;;;;;;;;;13.25;13.25;;;;;12.48;40.46;-18825.47;5066009;28;10352;-70
2022/04/17 07:32:42;;;;;;;;;14.50;13.00;;;;;12.38;40.14;-18822.28;5063641;28;10332;-70
2022/04/17 07:35:11;;;;;;;;;12.00;11.50;;;;;12.05;40.28;-18812.50;5063731;28;10423;-71
2022/04/17 07:37:38;;;;;;;;;15.50;11.25;;;;;12.48;40.29;-18825.47;5062999;28;11127;-71
2022/04/17 07:40:15;;;;;;;;;11.25;11.25;;;;;12.75;39.57;-18833.44;5061671;28;10165;-69
2022/04/17 07:42:42;;;;;;;;;11.50;11.00;;;;;12.83;40.04;-18835.88;5072555;28;10157;-70
2022/04/17 07:45:10;;;;;;;;;15.50;12.75;;;;;12.70;39.96;-18831.78;5072633;28;10243;-70
2022/04/17 07:47:37;;;;;;;;;11.00;9.75;;;;;12.89;40.30;-18837.69;5071639;28;10249;-70
2022/04/17 07:50:07;;;;;;;;;14.00;14.00;;;;;12.91;39.42;-18838.13;5072622;28;10140;-69
2022/04/17 07:52:34;;;;;;;;;13.25;13.25;;;;;12.86;39.26;-18836.75;5053135;28;10058;-69
2022/04/17 07:55:02;;;;;;;;;12.00;10.50;;;;;13.18;39.00;-18846.13;5064773;28;10099;-70
2022/04/17 07:57:30;;;;;;;;;10.75;8.50;;;;;13.58;38.29;-18858.00;5071542;28;10022;-69
2022/04/17 07:59:57;;;;;;;;;9.00;8.00;;;;;13.72;38.15;-18862.22;5066551;28;10758;-69
2022/04/17 08:02:49;;;;;;;;;7.75;7.75;;;;;13.84;37.08;-18865.84;5072562;28;9918;-68
2022/04/17 08:05:16;;;;;;;;;9.00;7.75;;;;;14.09;36.95;-18873.06;5072358;28;9685;-68
2022/04/17 08:07:43;;;;;;;;;10.75;10.00;;;;;14.20;36.86;-18876.38;5071777;28;10527;-69
2022/04/17 08:10:09;;;;;;;;;11.00;10.25;;;;;14.25;36.03;-18877.88;5070725;28;9762;-69
2022/04/17 08:12:36;;;;;;;;;11.75;9.00;;;;;14.39;35.91;-18882.09;5072164;28;9924;-71
2022/04/17 08:15:02;;;;;;;;;9.00;9.00;;;;;14.53;36.51;-18886.03;5072338;28;9965;-72
2022/04/17 08:17:29;;;;;;;;;7.75;7.00;;;;;14.52;36.32;-18885.88;5071911;28;9800;-69
2022/04/17 08:19:55;;;;;;;;;11.00;11.00;;;;;14.72;35.56;-18891.91;5071278;28;9877;-69
2022/04/17 08:22:22;;;;;;;;;12.00;12.00;;;;;14.90;35.97;-18897.16;5055329;28;9688;-69
2022/04/17 08:24:48;;;;;;;;;11.00;10.50;;;;;14.85;35.54;-18895.50;5069935;28;10537;-69
2022/04/17 08:27:15;;;;;;;;;11.00;10.75;;;;;14.94;35.36;-18898.38;5068216;28;9682;-70
2022/04/17 08:29:41;;;;;;;;;11.75;10.50;;;;;15.03;34.93;-18900.94;5071523;28;9705;-68
2022/04/17 08:32:08;;;;;;;;;11.25;10.25;;;;;14.90;35.22;-18897.00;5058114;28;9679;-70
2022/04/17 08:34:34;;;;;;;;;6.50;6.50;;;;;14.97;35.34;-18899.28;5060519;28;9656;-70
2022/04/17 08:37:01;;;;;;;;;9.25;9.00;;;;;15.42;34.83;-18912.38;5071944;28;9521;-71
2022/04/17 08:39:27;;;;;;;;;13.75;11.00;;;;;15.45;34.46;-18913.41;5056068;28;9632;-71
2022/04/17 08:41:58;;;;;;;;;11.75;11.25;;;;;15.22;34.40;-18906.66;5071634;28;9660;-68
2022/04/17 08:44:24;;;;;;;;;15.00;11.75;;;;;15.60;34.87;-18917.78;5071502;28;9633;-70
2022/04/17 08:46:51;;;;;;;;;9.00;9.00;;;;;15.77;33.79;-18922.75;5065303;28;10328;-70
2022/04/17 08:49:18;;;;;;;;;12.50;11.50;;;;;15.72;34.32;-18921.25;5056047;28;9761;-70
2022/04/17 08:51:48;;;;;;;;;9.75;9.25;;;;;15.94;34.36;-18927.88;5074450;28;9684;-70
2022/04/17 08:54:15;;;;;;;;;11.00;10.50;;;;;15.82;33.97;-18924.25;5060307;28;9531;-70
2022/04/17 08:56:42;;;;;;;;;9.00;7.33;;;;;16.40;33.55;-18941.53;5067799;28;9685;-70
2022/04/17 08:59:08;;;;;;;;;10.75;10.75;;;;;16.13;31.52;-18933.44;5051554;28;10130;-70
2022/04/17 09:01:36;;;;;;;;;9.00;9.00;;;;;16.50;32.30;-18944.41;5054806;28;9530;-70
2022/04/17 09:04:03;;;;;;;;;9.75;8.00;;;;;16.67;31.27;-18949.38;5060335;28;9455;-69
2022/04/17 09:06:30;;;;;;;;;8.33;7.00;;;;;16.78;31.76;-18952.81;5051486;28;9438;-69
2022/04/17 09:09:00;;;;;;;;;8.00;7.75;;;;;16.89;31.12;-18956.13;5054847;28;9331;-70
2022/04/17 09:11:28;;;;;;;;;9.67;9.67;;;;;16.83;30.63;-18954.19;5059908;28;9435;-70
2022/04/17 09:13:57;;;;;;;;;14.00;10.00;;;;;16.95;29.98;-18957.78;5084953;28;10091;-69
2022/04/17 09:16:29;;;;;;;;;9.33;9.33;;;;;17.41;30.37;-18971.31;5065435;28;9466;-69
2022/04/17 09:18:57;;;;;;;;;8.67;7.67;;;;;17.49;29.94;-18973.88;5064328;28;10010;-69
2022/04/17 09:21:32;;;;;;;;;8.67;7.00;;;;;17.60;30.24;-18977.03;5066344;28;9323;-69
2022/04/17 09:24:18;;;;;;;;;7.00;6.00;;;;;17.38;29.92;-18970.56;5070224;28;9228;-69
2022/04/17 09:26:58;;;;;;;;;7.67;7.67;;;;;17.60;30.41;-18976.88;5071019;28;9223;-73
2022/04/17 09:29:29;;;;;;;;;11.67;11.00;;;;;17.40;30.98;-18971.00;5071666;28;9221;-70
2022/04/17 09:32:00;;;;;;;;;7.00;6.33;;;;;17.61;31.81;-18977.31;5051488;28;9302;-70
2022/04/17 09:34:40;;;;;;;;;14.00;10.00;;;;;17.92;31.42;-18986.34;5060075;28;9182;-70
2022/04/17 09:37:15;;;;;;;;;11.33;10.33;;;;;17.89;30.59;-18985.44;5069041;28;9262;-70
2022/04/17 09:39:42;;;;;;;;;10.00;8.33;;;;;17.92;26.66;-18986.50;5062965;28;9911;-70
2022/04/17 09:42:09;;;;;;;;;8.67;7.00;;;;;17.84;26.49;-18984.09;5054240;28;9067;-71
2022/04/17 09:44:49;;;;;;;;;7.33;6.67;;;;;17.96;26.43;-18987.69;5061416;28;9725;-71
2022/04/17 09:47:26;;;;;;;;;4.67;4.67;;;;;18.15;26.59;-18993.25;5067260;28;9011;-72
2022/04/17 09:50:09;;;;;;;;;7.00;6.00;;;;;18.05;27.08;-18990.41;5067408;28;9053;-70
2022/04/17 09:52:45;;;;;;;;;8.00;8.00;;;;;18.02;27.25;-18989.50;5070619;28;9732;-71
2022/04/17 09:55:12;;;;;;;;;6.67;5.67;;;;;17.98;27.75;-18988.28;5070921;28;9238;-71
2022/04/17 09:57:41;;;;;;;;;10.33;8.00;;;;;18.17;28.61;-18993.69;5070244;28;9854;-68
2022/04/17 10:00:14;;;;;;;;;7.00;6.67;;;;;18.49;27.32;-19003.16;5051818;28;8988;-67
2022/04/17 10:02:45;;;;;;;;;9.33;8.33;;;;;18.24;30.24;-18995.81;5050688;28;8994;-67
2022/04/17 10:05:14;;;;;;;;;10.00;10.00;;;;;18.22;30.58;-18995.19;5056948;28;9001;-71
2022/04/17 10:07:44;;;;;;;;;12.33;12.00;;;;;18.05;31.36;-18990.25;5068425;28;9166;-69
2022/04/17 10:10:12;;;;;;;;;13.00;13.00;;;;;17.60;31.27;-18977.03;5070301;28;9106;-69
2022/04/17 10:12:41;;;;;;;;;14.00;12.67;;;;;17.81;31.27;-18983.34;5052679;28;9281;-67
2022/04/17 10:15:08;;;;;;;;;11.33;11.00;;;;;17.63;31.39;-18977.78;5070381;28;9133;-67
2022/04/17 10:17:36;;;;;;;;;12.00;12.00;;;;;17.77;31.50;-18982.13;5087402;28;9122;-68
2022/04/17 10:20:06;;;;;;;;;16.33;16.00;;;;;17.29;31.93;-18967.84;5068617;28;9065;-67
2022/04/17 10:22:34;;;;;;;;;15.00;15.00;;;;;17.77;31.50;-18981.97;5058177;28;9304;-70
2022/04/17 10:25:02;;;;;;;;;12.67;11.00;;;;;17.78;31.82;-18982.28;5050133;28;9275;-67
2022/04/17 10:27:46;;;;;;;;;11.00;11.00;;;;;17.96;31.47;-18987.69;5049722;28;9237;-68
2022/04/17 10:30:20;;;;;;;;;16.67;13.67;;;;;17.75;31.55;-18981.38;5060217;28;9170;-70
2022/04/17 10:33:03;;;;;;;;;11.67;9.33;;;;;17.98;31.48;-18988.28;5081023;28;9144;-68
2022/04/17 10:36:09;;;;;;;;;10.00;10.00;;;;;18.40;30.97;-19000.63;5068918;28;9818;-68
2022/04/17 10:39:04;;;;;;;;;9.00;9.00;;;;;18.59;30.87;-19006.31;5052538;28;9084;-68
2022/04/17 10:41:31;;;;;;;;;10.67;10.67;;;;;18.54;30.57;-19004.81;5066845;28;9135;-68
2022/04/17 10:43:59;;;;;;;;;10.00;9.33;;;;;18.72;30.89;-19010.22;5065007;28;9064;-69
2022/04/17 10:46:25;;;;;;;;;13.00;12.00;;;;;18.47;31.27;-19002.72;5068953;28;9085;-70
2022/04/17 10:48:57;;;;;;;;;16.00;13.67;;;;;18.40;31.92;-19000.75;5070827;28;8986;-67
2022/04/17 10:51:26;;;;;;;;;9.67;8.00;;;;;18.50;31.36;-19003.47;5089183;28;9257;-69
2022/04/17 10:54:03;;;;;;;;;16.33;16.00;;;;;18.38;31.47;-19000.16;5071209;28;9060;-68
2022/04/17 10:56:33;;;;;;;;;10.33;10.33;;;;;18.77;30.84;-19011.56;5071371;28;9262;-72
2022/04/17 10:59:03;;;;;;;;;14.00;12.67;;;;;18.39;30.92;-19000.47;5065022;28;9104;-69
2022/04/17 11:01:41;;;;;;;;;13.67;13.67;;;;;18.35;31.04;-18999.25;5072557;28;9129;-70
2022/04/17 11:04:36;;;;;;;;;13.33;12.00;;;;;18.54;31.39;-19004.81;5070092;28;9177;-67
2022/04/17 11:07:06;;;;;;;;;10.67;10.67;;;;;18.70;31.29;-19009.63;5072260;28;9071;-68
2022/04/17 11:09:33;;;;;;;;;11.67;11.67;;;;;18.53;31.07;-19004.50;5065053;28;8998;-68
2022/04/17 11:12:08;;;;;;;;;14.00;12.67;;;;;18.91;30.78;-19015.63;5053450;28;9042;-70
2022/04/17 11:14:34;;;;;;;;;15.33;14.33;;;;;18.80;30.39;-19012.47;5072912;28;9131;-69
2022/04/17 11:17:08;;;;;;;;;14.33;12.67;;;;;18.25;30.79;-18996.09;5070740;28;9233;-68
2022/04/17 11:19:38;;;;;;;;;14.67;12.00;;;;;18.67;30.39;-19008.56;5072462;28;9060;-68
2022/04/17 11:22:08;;;;;;;;;15.33;15.33;;;;;18.25;31.05;-18996.09;5073546;28;9273;-68
2022/04/17 11:24:55;;;;;;;;;12.67;9.33;;;;;18.94;30.11;-19016.69;5069027;28;9296;-71
2022/04/17 11:27:49;;;;;;;;;14.00;10.67;;;;;19.09;30.43;-19020.88;5076555;28;9067;-67
2022/04/17 11:30:36;;;;;;;;;12.67;12.00;;;;;19.43;29.71;-19031.09;5055863;28;9148;-68
2022/04/17 11:33:04;;;;;;;;;12.67;12.67;;;;;19.29;28.88;-19026.88;5069227;28;9174;-69
2022/04/17 11:35:31;;;;;;;;;11.00;11.00;;;;;19.27;28.23;-19026.44;5062928;28;9728;-67
2022/04/17 11:38:04;;;;;;;;;10.50;10.50;;;;;19.05;28.18;-19019.97;5063168;28;9183;-68
2022/04/17 11:40:34;;;;;;;;;8.75;7.00;;;;;19.61;27.78;-19036.34;5065476;28;8867;-70